Time;durP1;ratioP1;P1;durP2;ratioP2;P2;SDS_P1;SDS_P2;PMS_P1;PMS_P2;Temp;Humidity;BMP_temperature;BMP_pressure;BME280_temperature;BME280_humidity;BME280_pressure;Samples;Min_cycle;Max_cycle;Signal;HPM_P1;HPM_P2
2021/07/06 00:00:26;;;;;;;22.25;11.95;;;;;;;;;;4904185;28;20047;-61
2021/07/06 00:02:52;;;;;;;24.85;12.55;;;;;;;;;;4889673;28;20037;-61
2021/07/06 00:05:23;;;;;;;23.73;12.95;;;;;;;;;;4889606;28;20524;-62
2021/07/06 00:07:50;;;;;;;25.85;13.30;;;;;;;;;;4890836;28;20087;-62
2021/07/06 00:10:18;;;;;;;22.52;12.95;;;;;;;;;;4889236;28;20040;-61
2021/07/06 00:12:49;;;;;;;26.30;13.95;;;;;;;;;;4891444;28;20436;-61
2021/07/06 00:15:23;;;;;;;22.92;12.52;;;;;;;;;;4890602;28;20039;-61
2021/07/06 00:17:50;;;;;;;23.17;11.98;;;;;;;;;;4889486;28;20051;-62
2021/07/06 00:20:16;;;;;;;21.05;12.15;;;;;;;;;;4890802;28;20044;-61
2021/07/06 00:22:44;;;;;;;23.20;12.60;;;;;;;;;;4886215;28;20549;-61
2021/07/06 00:25:10;;;;;;;23.80;12.98;;;;;;;;;;4892116;28;20187;-61
2021/07/06 00:27:37;;;;;;;22.20;11.90;;;;;;;;;;4895397;28;20150;-61
2021/07/06 00:30:07;;;;;;;19.23;10.88;;;;;;;;;;4892644;28;20050;-61
2021/07/06 00:32:32;;;;;;;20.50;13.13;;;;;;;;;;4893995;28;20032;-61
2021/07/06 00:35:00;;;;;;;18.50;11.85;;;;;;;;;;4892921;28;20044;-62
2021/07/06 00:37:28;;;;;;;24.88;12.85;;;;;;;;;;4893847;28;20063;-61
2021/07/06 00:39:57;;;;;;;27.45;13.50;;;;;;;;;;4879250;28;20138;-62
2021/07/06 00:42:23;;;;;;;23.45;13.10;;;;;;;;;;4870528;28;20086;-61
2021/07/06 00:44:48;;;;;;;22.65;12.25;;;;;;;;;;4889905;28;20040;-62
2021/07/06 00:47:14;;;;;;;22.88;11.85;;;;;;;;;;4895358;28;20043;-61
2021/07/06 00:49:42;;;;;;;21.65;12.35;;;;;;;;;;4859312;28;20064;-61
2021/07/06 00:52:07;;;;;;;21.42;11.90;;;;;;;;;;4893486;28;20032;-60
2021/07/06 00:54:35;;;;;;;23.73;12.27;;;;;;;;;;4890948;28;20503;-60
2021/07/06 00:57:01;;;;;;;28.83;13.10;;;;;;;;;;4890838;28;21097;-61
2021/07/06 00:59:26;;;;;;;18.73;11.70;;;;;;;;;;4892426;28;20032;-59
2021/07/06 01:01:57;;;;;;;19.08;11.93;;;;;;;;;;4893858;28;20040;-60
2021/07/06 01:04:22;;;;;;;20.83;12.82;;;;;;;;;;4892870;28;20068;-60
2021/07/06 01:06:48;;;;;;;22.05;11.85;;;;;;;;;;4894926;28;20143;-61
2021/07/06 01:09:16;;;;;;;24.13;13.07;;;;;;;;;;4892645;28;20464;-60
2021/07/06 01:11:44;;;;;;;24.35;12.82;;;;;;;;;;4892691;28;20436;-60
2021/07/06 01:14:15;;;;;;;17.33;11.32;;;;;;;;;;4890429;28;20100;-60
2021/07/06 01:16:43;;;;;;;16.65;10.80;;;;;;;;;;4890867;28;20483;-60
2021/07/06 01:19:10;;;;;;;27.52;12.75;;;;;;;;;;4875750;28;20089;-61
2021/07/06 01:21:39;;;;;;;20.38;11.18;;;;;;;;;;4891389;28;20106;-61
2021/07/06 01:24:04;;;;;;;23.35;12.73;;;;;;;;;;4889057;28;20127;-60
2021/07/06 01:26:30;;;;;;;21.40;11.20;;;;;;;;;;4902992;28;20043;-60
2021/07/06 01:28:57;;;;;;;21.92;11.05;;;;;;;;;;4894522;28;20696;-60
2021/07/06 01:31:27;;;;;;;25.02;11.30;;;;;;;;;;4893542;28;20047;-61
2021/07/06 01:33:56;;;;;;;21.08;11.52;;;;;;;;;;4889631;28;20044;-63
2021/07/06 01:36:22;;;;;;;21.15;11.57;;;;;;;;;;4894611;28;20040;-62
2021/07/06 01:38:48;;;;;;;21.08;12.13;;;;;;;;;;4874146;28;20373;-63
2021/07/06 01:41:18;;;;;;;21.35;11.48;;;;;;;;;;4891682;28;20027;-64
2021/07/06 01:43:46;;;;;;;17.05;10.20;;;;;;;;;;4891083;28;20036;-61
2021/07/06 01:46:16;;;;;;;18.17;9.93;;;;;;;;;;4890189;28;22160;-63
2021/07/06 01:48:41;;;;;;;21.63;10.15;;;;;;;;;;4906714;28;20048;-63
2021/07/06 01:51:09;;;;;;;22.05;10.55;;;;;;;;;;4890702;28;20494;-62
2021/07/06 01:53:39;;;;;;;17.83;9.77;;;;;;;;;;4889951;28;20091;-63
2021/07/06 01:56:17;;;;;;;14.80;9.48;;;;;;;;;;4904817;28;20036;-62
2021/07/06 01:58:43;;;;;;;16.30;9.63;;;;;;;;;;4892525;28;20033;-63
2021/07/06 02:01:11;;;;;;;13.73;8.90;;;;;;;;;;4889041;28;20064;-64
2021/07/06 02:03:36;;;;;;;16.38;9.93;;;;;;;;;;4870953;28;20922;-62
2021/07/06 02:06:03;;;;;;;16.67;9.02;;;;;;;;;;4893034;28;20071;-62
2021/07/06 02:08:28;;;;;;;17.52;8.82;;;;;;;;;;4875041;28;20643;-64
2021/07/06 02:10:59;;;;;;;14.85;9.35;;;;;;;;;;4892257;28;20034;-63
2021/07/06 02:13:27;;;;;;;13.65;8.60;;;;;;;;;;4906042;28;20792;-64
2021/07/06 02:15:59;;;;;;;16.15;9.55;;;;;;;;;;4904083;28;20028;-63
2021/07/06 02:18:28;;;;;;;13.98;8.85;;;;;;;;;;4892374;28;20071;-67
2021/07/06 02:20:56;;;;;;;19.05;8.85;;;;;;;;;;4890149;28;20032;-62
2021/07/06 02:23:22;;;;;;;14.40;9.13;;;;;;;;;;4889712;28;20044;-63
2021/07/06 02:25:48;;;;;;;12.43;8.75;;;;;;;;;;4891873;28;20036;-64
2021/07/06 02:28:17;;;;;;;16.63;8.90;;;;;;;;;;4890818;28;20813;-64
2021/07/06 02:30:42;;;;;;;12.20;8.52;;;;;;;;;;4901501;28;20044;-63
2021/07/06 02:33:08;;;;;;;14.80;8.57;;;;;;;;;;4890884;28;20043;-66
2021/07/06 02:35:38;;;;;;;17.08;9.25;;;;;;;;;;4892338;28;20030;-66
2021/07/06 02:38:06;;;;;;;19.38;9.40;;;;;;;;;;4905019;28;20178;-65
2021/07/06 02:40:35;;;;;;;18.52;9.32;;;;;;;;;;4890122;28;21059;-66
2021/07/06 02:43:05;;;;;;;14.15;8.02;;;;;;;;;;4890470;28;20471;-63
2021/07/06 02:45:34;;;;;;;17.30;9.65;;;;;;;;;;4890794;28;20178;-64
2021/07/06 02:48:01;;;;;;;19.55;8.15;;;;;;;;;;4891251;28;20036;-65
2021/07/06 02:50:32;;;;;;;19.35;8.77;;;;;;;;;;4891010;28;20559;-63
2021/07/06 02:53:00;;;;;;;12.30;8.65;;;;;;;;;;4889527;28;20040;-65
2021/07/06 02:55:26;;;;;;;16.33;9.13;;;;;;;;;;4906374;28;20044;-64
2021/07/06 02:57:54;;;;;;;19.05;8.85;;;;;;;;;;4890471;28;20036;-63
2021/07/06 03:00:25;;;;;;;16.13;8.30;;;;;;;;;;4879065;28;20095;-64
2021/07/06 03:02:51;;;;;;;8.52;6.68;;;;;;;;;;4890212;28;20042;-64
2021/07/06 03:05:17;;;;;;;15.82;7.70;;;;;;;;;;4888857;28;20127;-63
2021/07/06 03:07:45;;;;;;;14.27;8.32;;;;;;;;;;4891148;28;20033;-65
2021/07/06 03:10:19;;;;;;;12.38;8.65;;;;;;;;;;4904630;28;20483;-64
2021/07/06 03:12:47;;;;;;;15.63;8.10;;;;;;;;;;4890415;28;20125;-64
2021/07/06 03:15:18;;;;;;;12.85;7.53;;;;;;;;;;4889793;28;20039;-64
2021/07/06 03:17:50;;;;;;;12.88;7.93;;;;;;;;;;4891091;28;20508;-64
2021/07/06 03:20:19;;;;;;;12.70;7.15;;;;;;;;;;4906070;28;20503;-65
2021/07/06 03:22:45;;;;;;;9.70;6.82;;;;;;;;;;4889742;28;20647;-66
2021/07/06 03:25:14;;;;;;;11.45;6.97;;;;;;;;;;4890322;28;20147;-63
2021/07/06 03:27:46;;;;;;;12.40;5.88;;;;;;;;;;4888540;28;20817;-65
2021/07/06 03:30:14;;;;;;;12.43;5.65;;;;;;;;;;4890622;28;20039;-63
2021/07/06 03:32:39;;;;;;;9.85;6.10;;;;;;;;;;4889621;28;20039;-64
2021/07/06 03:35:08;;;;;;;10.82;6.50;;;;;;;;;;4888222;28;20040;-64
2021/07/06 03:37:36;;;;;;;6.75;5.05;;;;;;;;;;4888723;28;20051;-66
2021/07/06 03:40:09;;;;;;;7.82;5.68;;;;;;;;;;4900799;28;20039;-65
2021/07/06 03:42:38;;;;;;;19.67;6.53;;;;;;;;;;4890188;28;20042;-65
2021/07/06 03:45:04;;;;;;;9.38;5.32;;;;;;;;;;4873792;28;20064;-64
2021/07/06 03:47:30;;;;;;;8.63;5.25;;;;;;;;;;4901031;28;20045;-65
2021/07/06 03:49:57;;;;;;;9.02;5.78;;;;;;;;;;4905156;28;20036;-64
2021/07/06 03:52:23;;;;;;;10.40;6.07;;;;;;;;;;4890349;28;20492;-63
2021/07/06 03:54:51;;;;;;;8.48;5.63;;;;;;;;;;4902318;28;20052;-67
2021/07/06 03:57:28;;;;;;;10.40;5.38;;;;;;;;;;4892822;28;20500;-66
2021/07/06 03:59:57;;;;;;;8.45;5.05;;;;;;;;;;4906782;28;20123;-62
2021/07/06 04:02:26;;;;;;;11.77;5.65;;;;;;;;;;4892220;28;22022;-63
2021/07/06 04:04:54;;;;;;;10.10;5.13;;;;;;;;;;4892493;28;20464;-66
2021/07/06 04:07:24;;;;;;;6.35;4.43;;;;;;;;;;4893547;28;20369;-65
2021/07/06 04:09:52;;;;;;;9.13;4.28;;;;;;;;;;4907327;28;20037;-66
2021/07/06 04:12:22;;;;;;;11.52;4.53;;;;;;;;;;4893372;28;20028;-64
2021/07/06 04:14:48;;;;;;;6.55;4.35;;;;;;;;;;4893146;28;20044;-65
2021/07/06 04:17:16;;;;;;;9.25;5.05;;;;;;;;;;4893926;28;20123;-68
2021/07/06 04:19:42;;;;;;;12.43;5.05;;;;;;;;;;4879096;28;20040;-66
2021/07/06 04:22:10;;;;;;;10.02;4.63;;;;;;;;;;4892392;28;20503;-66
2021/07/06 04:24:35;;;;;;;7.47;3.90;;;;;;;;;;4873916;28;20057;-66
2021/07/06 04:27:03;;;;;;;15.27;4.40;;;;;;;;;;4890136;28;20036;-66
2021/07/06 04:29:31;;;;;;;7.45;4.55;;;;;;;;;;4893795;28;20032;-64
2021/07/06 04:31:59;;;;;;;5.63;4.18;;;;;;;;;;4892433;28;20046;-65
2021/07/06 04:34:25;;;;;;;5.47;3.95;;;;;;;;;;4892393;28;20074;-65
2021/07/06 04:36:50;;;;;;;8.32;3.97;;;;;;;;;;4889839;28;20124;-65
2021/07/06 04:39:18;;;;;;;5.95;3.60;;;;;;;;;;4893875;28;20028;-65
2021/07/06 04:41:45;;;;;;;4.80;3.80;;;;;;;;;;4891626;28;20051;-64
2021/07/06 04:44:11;;;;;;;5.63;3.67;;;;;;;;;;4891718;28;20615;-67
2021/07/06 04:46:39;;;;;;;6.40;3.22;;;;;;;;;;4891788;28;20042;-66
2021/07/06 04:49:05;;;;;;;4.18;3.33;;;;;;;;;;4906894;28;20130;-63
2021/07/06 04:51:34;;;;;;;5.15;2.80;;;;;;;;;;4876607;28;20143;-66
2021/07/06 04:54:02;;;;;;;4.13;3.03;;;;;;;;;;4894348;28;20042;-64
2021/07/06 04:56:28;;;;;;;3.75;2.90;;;;;;;;;;4895251;28;20552;-64
2021/07/06 04:58:54;;;;;;;7.72;3.20;;;;;;;;;;4892191;28;20111;-65
2021/07/06 05:01:20;;;;;;;6.50;3.05;;;;;;;;;;4892771;28;20054;-65
2021/07/06 05:03:49;;;;;;;4.13;2.42;;;;;;;;;;4893766;28;20036;-65
2021/07/06 05:06:15;;;;;;;4.82;2.58;;;;;;;;;;4892818;28;22219;-64
2021/07/06 05:08:43;;;;;;;4.20;2.35;;;;;;;;;;4890525;28;20033;-64
2021/07/06 05:11:09;;;;;;;3.95;2.63;;;;;;;;;;4891111;28;20037;-66
2021/07/06 05:13:39;;;;;;;4.03;2.35;;;;;;;;;;4906171;28;20111;-65
2021/07/06 05:16:07;;;;;;;3.67;2.35;;;;;;;;;;4892564;28;20119;-64
2021/07/06 05:18:37;;;;;;;2.55;2.03;;;;;;;;;;4891612;28;20046;-65
2021/07/06 05:21:05;;;;;;;3.20;1.80;;;;;;;;;;4879280;28;20151;-64
2021/07/06 05:23:30;;;;;;;3.15;2.13;;;;;;;;;;4903962;28;20035;-64
2021/07/06 05:25:56;;;;;;;2.45;1.65;;;;;;;;;;4892277;28;20033;-64
2021/07/06 05:28:22;;;;;;;4.13;1.65;;;;;;;;;;4901953;28;20640;-64
2021/07/06 05:30:50;;;;;;;6.22;1.73;;;;;;;;;;4875368;28;20032;-64
2021/07/06 05:33:17;;;;;;;2.63;1.27;;;;;;;;;;4902562;28;20613;-66
2021/07/06 05:35:43;;;;;;;4.10;1.30;;;;;;;;;;4905258;28;20050;-65
2021/07/06 05:38:11;;;;;;;2.17;1.10;;;;;;;;;;4891068;28;20031;-64
2021/07/06 05:40:39;;;;;;;5.30;1.10;;;;;;;;;;4905166;28;21960;-65
2021/07/06 05:43:08;;;;;;;1.58;1.20;;;;;;;;;;4891222;28;20028;-63
2021/07/06 05:45:37;;;;;;;2.95;1.17;;;;;;;;;;4870310;28;20056;-62
2021/07/06 05:48:02;;;;;;;1.10;0.73;;;;;;;;;;4906320;28;20484;-67
2021/07/06 05:50:31;;;;;;;0.75;0.70;;;;;;;;;;4891697;28;20029;-64
2021/07/06 05:52:56;;;;;;;2.03;0.80;;;;;;;;;;4904250;28;20476;-62
2021/07/06 05:55:21;;;;;;;0.80;0.68;;;;;;;;;;4890868;28;20040;-64
2021/07/06 05:57:47;;;;;;;1.60;1.00;;;;;;;;;;4890842;28;20103;-66
2021/07/06 06:00:16;;;;;;;2.88;0.95;;;;;;;;;;4892922;28;21325;-67
2021/07/06 06:02:44;;;;;;;1.10;0.75;;;;;;;;;;4891163;28;20036;-64
2021/07/06 06:05:11;;;;;;;3.33;0.88;;;;;;;;;;4860891;28;20074;-63
2021/07/06 06:07:38;;;;;;;5.90;0.80;;;;;;;;;;4889464;28;20946;-64
2021/07/06 06:10:05;;;;;;;1.20;0.65;;;;;;;;;;4905213;28;20038;-63
2021/07/06 06:12:31;;;;;;;3.92;0.95;;;;;;;;;;4892887;28;20032;-62
2021/07/06 06:14:56;;;;;;;1.80;0.70;;;;;;;;;;4904864;28;20048;-62
2021/07/06 06:17:24;;;;;;;1.77;0.70;;;;;;;;;;4891668;28;20117;-65
2021/07/06 06:19:50;;;;;;;1.60;0.85;;;;;;;;;;4904369;28;20074;-65
2021/07/06 06:22:17;;;;;;;2.03;0.93;;;;;;;;;;4888358;28;20443;-65
2021/07/06 06:24:43;;;;;;;1.92;0.63;;;;;;;;;;4890062;28;20048;-64
2021/07/06 06:27:10;;;;;;;3.40;0.63;;;;;;;;;;4889913;28;20027;-62
2021/07/06 06:29:36;;;;;;;9.73;1.10;;;;;;;;;;4904485;28;20742;-62
2021/07/06 06:32:04;;;;;;;3.50;0.93;;;;;;;;;;4887878;28;20126;-62
2021/07/06 06:34:32;;;;;;;0.40;0.40;;;;;;;;;;4898568;28;20570;-63
2021/07/06 06:37:02;;;;;;;2.28;0.85;;;;;;;;;;4904206;28;20043;-64
2021/07/06 06:39:29;;;;;;;7.00;1.00;;;;;;;;;;4888179;28;20123;-63
2021/07/06 06:41:54;;;;;;;1.55;1.10;;;;;;;;;;4891654;28;20046;-66
2021/07/06 06:44:20;;;;;;;1.55;0.88;;;;;;;;;;4888678;28;20084;-63
2021/07/06 06:46:50;;;;;;;2.25;0.60;;;;;;;;;;4890395;28;20110;-61
2021/07/06 06:49:18;;;;;;;0.80;0.70;;;;;;;;;;4887803;28;20159;-64
2021/07/06 06:51:44;;;;;;;5.20;0.70;;;;;;;;;;4886670;28;20304;-63
2021/07/06 06:54:12;;;;;;;5.53;0.80;;;;;;;;;;4888988;28;20064;-64
2021/07/06 06:56:42;;;;;;;0.65;0.65;;;;;;;;;;4890982;28;20028;-63
2021/07/06 06:59:08;;;;;;;0.98;0.80;;;;;;;;;;4888988;28;20054;-63
2021/07/06 07:01:38;;;;;;;5.75;0.63;;;;;;;;;;4905588;28;20492;-63
2021/07/06 07:04:09;;;;;;;4.50;1.00;;;;;;;;;;4888286;28;20036;-65
2021/07/06 07:06:34;;;;;;;4.97;0.80;;;;;;;;;;4886253;28;20082;-65
2021/07/06 07:09:02;;;;;;;1.00;0.70;;;;;;;;;;4890640;28;20431;-61
2021/07/06 07:11:30;;;;;;;1.75;1.02;;;;;;;;;;4889841;28;20064;-61
2021/07/06 07:14:01;;;;;;;3.58;1.20;;;;;;;;;;4903849;28;20048;-64
2021/07/06 07:16:27;;;;;;;3.35;1.35;;;;;;;;;;4889359;28;20036;-63
2021/07/06 07:18:55;;;;;;;1.73;0.73;;;;;;;;;;4891440;28;20636;-68
2021/07/06 07:21:23;;;;;;;4.53;1.00;;;;;;;;;;4890279;28;20079;-65
2021/07/06 07:23:49;;;;;;;1.35;0.60;;;;;;;;;;4904124;28;20130;-63
2021/07/06 07:26:16;;;;;;;4.88;1.02;;;;;;;;;;4891497;28;20024;-63
2021/07/06 07:28:47;;;;;;;1.65;0.65;;;;;;;;;;4891437;28;20041;-63
2021/07/06 07:31:15;;;;;;;5.38;1.27;;;;;;;;;;4890792;28;20032;-64
2021/07/06 07:33:40;;;;;;;3.75;0.80;;;;;;;;;;4905051;28;20035;-64
2021/07/06 07:36:06;;;;;;;1.80;0.75;;;;;;;;;;4890181;28;20039;-64
2021/07/06 07:38:31;;;;;;;3.90;1.10;;;;;;;;;;4893770;28;20044;-66
2021/07/06 07:41:00;;;;;;;2.85;0.63;;;;;;;;;;4891652;28;20028;-67
2021/07/06 07:43:30;;;;;;;2.70;0.70;;;;;;;;;;4895324;28;20048;-64
2021/07/06 07:45:58;;;;;;;2.47;1.00;;;;;;;;;;4894454;28;20098;-65
2021/07/06 07:48:28;;;;;;;0.60;0.60;;;;;;;;;;4893392;28;20036;-64
2021/07/06 07:50:58;;;;;;;1.00;0.80;;;;;;;;;;4858873;28;20031;-64
2021/07/06 07:53:26;;;;;;;7.10;0.90;;;;;;;;;;4903155;28;20051;-66
2021/07/06 07:55:53;;;;;;;0.60;0.60;;;;;;;;;;4893260;28;20115;-65
2021/07/06 07:58:22;;;;;;;2.78;0.80;;;;;;;;;;4895429;28;20619;-65
2021/07/06 08:00:49;;;;;;;3.47;1.00;;;;;;;;;;4875532;28;20072;-67
2021/07/06 08:03:16;;;;;;;2.00;0.75;;;;;;;;;;4893713;28;20219;-66
2021/07/06 08:05:44;;;;;;;2.08;0.75;;;;;;;;;;4896121;28;20064;-63
2021/07/06 08:08:10;;;;;;;0.85;0.68;;;;;;;;;;4892941;28;20032;-66
2021/07/06 08:10:35;;;;;;;10.80;1.00;;;;;;;;;;4892268;28;20039;-62
2021/07/06 08:13:03;;;;;;;5.30;1.13;;;;;;;;;;4892197;28;20036;-65
2021/07/06 08:15:29;;;;;;;5.45;0.95;;;;;;;;;;4893133;28;20126;-66
2021/07/06 08:18:01;;;;;;;4.30;0.80;;;;;;;;;;4892986;28;20096;-66
2021/07/06 08:20:27;;;;;;;4.55;0.93;;;;;;;;;;4892544;28;20056;-66
2021/07/06 08:22:56;;;;;;;1.70;0.88;;;;;;;;;;4893448;28;20159;-65
2021/07/06 08:25:25;;;;;;;2.10;0.82;;;;;;;;;;4873909;28;20072;-65
2021/07/06 08:27:55;;;;;;;3.97;0.90;;;;;;;;;;4895816;28;20028;-66
2021/07/06 08:30:21;;;;;;;3.35;0.88;;;;;;;;;;4908856;28;20044;-65
2021/07/06 08:32:49;;;;;;;0.75;0.75;;;;;;;;;;4890988;28;20054;-63
2021/07/06 08:35:15;;;;;;;4.32;1.20;;;;;;;;;;4892412;28;20111;-66
2021/07/06 08:37:41;;;;;;;3.08;0.85;;;;;;;;;;4891995;28;20036;-65
2021/07/06 08:40:07;;;;;;;1.40;0.85;;;;;;;;;;4877246;28;20040;-65
2021/07/06 08:42:36;;;;;;;1.98;1.10;;;;;;;;;;4892151;28;21163;-66
2021/07/06 08:45:04;;;;;;;7.53;1.00;;;;;;;;;;4894006;28;20048;-65
2021/07/06 08:47:30;;;;;;;6.13;1.30;;;;;;;;;;4892144;28;20569;-65
2021/07/06 08:50:01;;;;;;;7.15;0.85;;;;;;;;;;4906576;28;20024;-66
2021/07/06 08:52:28;;;;;;;1.50;0.90;;;;;;;;;;4893552;28;20032;-65
2021/07/06 08:54:56;;;;;;;6.05;1.20;;;;;;;;;;4879070;28;20126;-66
2021/07/06 08:57:24;;;;;;;2.92;0.70;;;;;;;;;;4894319;28;20051;-65
2021/07/06 08:59:54;;;;;;;1.92;0.75;;;;;;;;;;4907608;28;20146;-64
2021/07/06 09:02:23;;;;;;;6.50;1.13;;;;;;;;;;4892422;28;20047;-64
2021/07/06 09:04:54;;;;;;;3.97;1.52;;;;;;;;;;4891301;28;20032;-65
2021/07/06 09:07:22;;;;;;;2.10;1.08;;;;;;;;;;4874286;28;20039;-66
2021/07/06 09:09:51;;;;;;;3.83;1.58;;;;;;;;;;4891381;28;20048;-67
2021/07/06 09:12:34;;;;;;;1.02;0.52;;;;;;;;;;4878821;28;20045;-69
2021/07/06 09:15:16;;;;;;;2.67;0.65;;;;;;;;;;4871238;28;20059;-65
2021/07/06 09:17:42;;;;;;;6.93;1.23;;;;;;;;;;4887374;28;20040;-66
2021/07/06 09:20:11;;;;;;;1.45;0.70;;;;;;;;;;4892477;28;20037;-65
2021/07/06 09:22:38;;;;;;;1.05;0.98;;;;;;;;;;4892326;28;20174;-66
2021/07/06 09:25:06;;;;;;;1.13;0.70;;;;;;;;;;4889394;28;20388;-66
2021/07/06 09:27:32;;;;;;;4.97;0.60;;;;;;;;;;4905502;28;22164;-63
2021/07/06 09:30:05;;;;;;;5.28;0.82;;;;;;;;;;4892758;28;20120;-66
2021/07/06 09:32:35;;;;;;;3.47;1.02;;;;;;;;;;4891604;28;20024;-65
2021/07/06 09:35:06;;;;;;;1.65;0.65;;;;;;;;;;4891730;28;20028;-65
2021/07/06 09:37:44;;;;;;;1.63;0.93;;;;;;;;;;4892374;28;20606;-62
2021/07/06 09:40:21;;;;;;;1.65;0.73;;;;;;;;;;4890889;28;20036;-63
2021/07/06 09:43:08;;;;;;;1.05;0.80;;;;;;;;;;4891268;28;20613;-64
2021/07/06 09:45:36;;;;;;;2.90;0.60;;;;;;;;;;4865658;28;20141;-64
2021/07/06 09:48:06;;;;;;;1.95;0.80;;;;;;;;;;4891454;28;20046;-65
2021/07/06 09:50:32;;;;;;;2.13;0.60;;;;;;;;;;4893257;28;20086;-65
2021/07/06 09:52:59;;;;;;;6.63;0.70;;;;;;;;;;4889972;28;20036;-66
2021/07/06 09:55:28;;;;;;;5.53;0.70;;;;;;;;;;4901413;28;20039;-63
2021/07/06 09:57:54;;;;;;;1.65;0.73;;;;;;;;;;4892136;28;22056;-63
2021/07/06 10:00:20;;;;;;;3.03;0.98;;;;;;;;;;4905760;28;20060;-65
2021/07/06 10:02:48;;;;;;;3.55;0.60;;;;;;;;;;4892857;28;20044;-63
2021/07/06 10:05:17;;;;;;;1.42;0.57;;;;;;;;;;4885543;28;20111;-65
2021/07/06 10:07:45;;;;;;;6.03;1.00;;;;;;;;;;4892305;28;20040;-63
2021/07/06 10:10:15;;;;;;;1.60;0.73;;;;;;;;;;4892335;28;20040;-65
2021/07/06 10:12:44;;;;;;;6.85;0.60;;;;;;;;;;4889446;28;20048;-64
2021/07/06 10:15:11;;;;;;;2.10;0.40;;;;;;;;;;4893099;28;20044;-64
2021/07/06 10:17:37;;;;;;;3.55;0.85;;;;;;;;;;4874624;28;20505;-64
2021/07/06 10:20:12;;;;;;;4.15;0.73;;;;;;;;;;4890209;28;20024;-64
2021/07/06 10:22:41;;;;;;;1.60;0.40;;;;;;;;;;4886107;28;20078;-64
2021/07/06 10:25:11;;;;;;;0.93;0.50;;;;;;;;;;4889852;28;20111;-65
2021/07/06 10:27:40;;;;;;;0.63;0.50;;;;;;;;;;4891439;28;20141;-62
2021/07/06 10:30:09;;;;;;;2.95;0.73;;;;;;;;;;4892222;28;20024;-63
2021/07/06 10:32:38;;;;;;;2.58;1.05;;;;;;;;;;4892116;28;20032;-61
2021/07/06 10:35:05;;;;;;;17.90;3.20;;;;;;;;;;4891932;28;20036;-58
2021/07/06 10:37:37;;;;;;;32.03;3.25;;;;;;;;;;4889467;28;20024;-57
2021/07/06 10:40:21;;;;;;;2.72;1.42;;;;;;;;;;4889295;28;20415;-57
2021/07/06 10:42:50;;;;;;;5.75;1.73;;;;;;;;;;4890240;28;20033;-59
2021/07/06 10:45:17;;;;;;;1.52;1.08;;;;;;;;;;4891770;28;20120;-58
2021/07/06 10:47:46;;;;;;;3.25;1.23;;;;;;;;;;4891662;28;20047;-59
2021/07/06 10:50:25;;;;;;;5.38;1.10;;;;;;;;;;4892251;28;20040;-58
2021/07/06 10:53:10;;;;;;;4.28;1.10;;;;;;;;;;4870974;28;20151;-59
2021/07/06 10:55:37;;;;;;;2.17;0.98;;;;;;;;;;4903596;28;20036;-59
2021/07/06 10:58:05;;;;;;;3.35;0.93;;;;;;;;;;4891481;28;20384;-60
2021/07/06 11:00:41;;;;;;;2.97;0.65;;;;;;;;;;4891738;28;20519;-59
2021/07/06 11:03:18;;;;;;;5.25;0.70;;;;;;;;;;4905073;28;20031;-60
2021/07/06 11:05:43;;;;;;;3.88;0.55;;;;;;;;;;4888185;28;20387;-59
2021/07/06 11:08:30;;;;;;;6.90;0.80;;;;;;;;;;4887180;28;20040;-59
2021/07/06 11:10:56;;;;;;;2.45;0.88;;;;;;;;;;4890447;28;20282;-62
2021/07/06 11:13:27;;;;;;;3.55;1.08;;;;;;;;;;4904880;28;20047;-60
2021/07/06 11:15:53;;;;;;;3.85;0.65;;;;;;;;;;4891288;28;20687;-60
2021/07/06 11:18:31;;;;;;;6.55;0.77;;;;;;;;;;4886297;28;20058;-61
2021/07/06 11:21:02;;;;;;;2.40;0.85;;;;;;;;;;4890363;28;22007;-59
2021/07/06 11:23:31;;;;;;;4.55;0.68;;;;;;;;;;4889701;28;20041;-61
2021/07/06 11:26:06;;;;;;;0.65;0.38;;;;;;;;;;4889237;28;20452;-60
2021/07/06 11:29:00;;;;;;;2.40;0.70;;;;;;;;;;4891231;28;20139;-61
2021/07/06 11:31:29;;;;;;;1.67;0.30;;;;;;;;;;4893611;28;20074;-61
2021/07/06 11:33:57;;;;;;;4.05;0.50;;;;;;;;;;4889278;28;20147;-61
2021/07/06 11:36:25;;;;;;;2.05;0.65;;;;;;;;;;4875986;28;20032;-61
2021/07/06 11:38:52;;;;;;;3.35;0.57;;;;;;;;;;4890987;28;20040;-62
2021/07/06 11:41:19;;;;;;;1.38;0.65;;;;;;;;;;4888536;28;20607;-61
2021/07/06 11:43:45;;;;;;;5.65;0.50;;;;;;;;;;4887099;28;20040;-61
2021/07/06 11:46:12;;;;;;;4.13;0.93;;;;;;;;;;4889726;28;20071;-63
2021/07/06 11:48:42;;;;;;;3.03;0.73;;;;;;;;;;4890882;28;20093;-61
2021/07/06 11:51:12;;;;;;;1.45;0.32;;;;;;;;;;4890725;28;20055;-62
2021/07/06 11:53:43;;;;;;;3.08;0.77;;;;;;;;;;4890191;28;20036;-63
2021/07/06 11:56:11;;;;;;;3.47;0.65;;;;;;;;;;4887675;28;20040;-61
2021/07/06 11:58:37;;;;;;;2.45;0.73;;;;;;;;;;4888842;28;20123;-63
2021/07/06 12:01:08;;;;;;;4.85;0.60;;;;;;;;;;4892066;28;20041;-63
2021/07/06 12:03:35;;;;;;;7.82;0.90;;;;;;;;;;4891228;28;20446;-65
2021/07/06 12:06:00;;;;;;;5.15;0.90;;;;;;;;;;4904030;28;20145;-63
2021/07/06 12:08:29;;;;;;;2.35;0.70;;;;;;;;;;4889149;28;20025;-61
2021/07/06 12:10:57;;;;;;;3.15;0.55;;;;;;;;;;4890357;28;20032;-61
2021/07/06 12:13:23;;;;;;;2.20;0.35;;;;;;;;;;4904916;28;20040;-63
2021/07/06 12:15:49;;;;;;;3.20;0.70;;;;;;;;;;4889778;28;20115;-64
2021/07/06 12:18:16;;;;;;;6.38;0.85;;;;;;;;;;4905605;28;20032;-64
2021/07/06 12:20:53;;;;;;;4.68;0.70;;;;;;;;;;4910245;28;20053;-61
2021/07/06 12:23:19;;;;;;;4.18;0.50;;;;;;;;;;4893253;28;20111;-64
2021/07/06 12:25:52;;;;;;;2.53;0.70;;;;;;;;;;4891025;28;20032;-64
2021/07/06 12:28:18;;;;;;;2.28;0.80;;;;;;;;;;4891294;28;20127;-65
2021/07/06 12:31:04;;;;;;;3.58;0.70;;;;;;;;;;4890154;28;21881;-63
2021/07/06 12:33:32;;;;;;;6.85;0.90;;;;;;;;;;4892756;28;20044;-64
2021/07/06 12:36:03;;;;;;;8.38;0.52;;;;;;;;;;4890890;28;20028;-62
2021/07/06 12:38:31;;;;;;;3.83;0.68;;;;;;;;;;4893042;28;20063;-65
2021/07/06 12:40:57;;;;;;;8.63;0.40;;;;;;;;;;4906779;28;20131;-62
2021/07/06 12:43:28;;;;;;;3.13;0.65;;;;;;;;;;4893699;28;20037;-65
2021/07/06 12:46:04;;;;;;;6.13;0.75;;;;;;;;;;4906856;28;20075;-61
2021/07/06 12:48:29;;;;;;;6.72;0.90;;;;;;;;;;4887752;28;20036;-62
2021/07/06 12:51:16;;;;;;;4.32;0.85;;;;;;;;;;4895161;28;20098;-62
2021/07/06 12:53:57;;;;;;;6.85;1.08;;;;;;;;;;4890100;28;20044;-64
2021/07/06 12:56:28;;;;;;;8.80;0.60;;;;;;;;;;4876520;28;20032;-64
2021/07/06 12:59:16;;;;;;;7.78;0.80;;;;;;;;;;4892352;28;20280;-67
2021/07/06 13:01:44;;;;;;;4.25;0.70;;;;;;;;;;4894889;28;20087;-65
2021/07/06 13:04:11;;;;;;;2.33;1.00;;;;;;;;;;4892852;28;20075;-61
2021/07/06 13:06:37;;;;;;;5.97;0.80;;;;;;;;;;4893526;28;20044;-66
2021/07/06 13:09:05;;;;;;;7.53;1.45;;;;;;;;;;4904764;28;20044;-63
2021/07/06 13:11:30;;;;;;;4.82;0.80;;;;;;;;;;4871791;28;20039;-63
2021/07/06 13:13:57;;;;;;;6.85;1.10;;;;;;;;;;4908393;28;20040;-62
2021/07/06 13:16:31;;;;;;;4.25;0.80;;;;;;;;;;4865848;28;21063;-62
2021/07/06 13:18:58;;;;;;;8.25;0.60;;;;;;;;;;4892626;28;20036;-65
2021/07/06 13:21:28;;;;;;;6.95;0.90;;;;;;;;;;4893878;28;20044;-63
2021/07/06 13:23:57;;;;;;;5.75;1.10;;;;;;;;;;4875333;28;20032;-67
2021/07/06 13:26:23;;;;;;;5.72;0.68;;;;;;;;;;4876812;28;20055;-64
2021/07/06 13:28:49;;;;;;;5.72;0.88;;;;;;;;;;4892281;28;20448;-63
2021/07/06 13:31:15;;;;;;;4.90;0.68;;;;;;;;;;4858994;28;20039;-64
2021/07/06 13:33:43;;;;;;;3.28;0.70;;;;;;;;;;4891126;28;20040;-66
2021/07/06 13:36:09;;;;;;;5.53;0.70;;;;;;;;;;4888839;28;20587;-64
2021/07/06 13:38:37;;;;;;;3.78;0.77;;;;;;;;;;4891941;28;20037;-66
2021/07/06 13:41:03;;;;;;;7.28;0.75;;;;;;;;;;4907064;28;20070;-67
2021/07/06 13:43:37;;;;;;;6.30;0.88;;;;;;;;;;4891533;28;22285;-64
2021/07/06 13:46:03;;;;;;;1.30;0.50;;;;;;;;;;4891191;28;20828;-66
2021/07/06 13:48:29;;;;;;;6.72;0.80;;;;;;;;;;4905654;28;20034;-65
2021/07/06 13:51:00;;;;;;;5.78;0.77;;;;;;;;;;4894412;28;20035;-64
2021/07/06 13:53:30;;;;;;;3.10;0.68;;;;;;;;;;4901522;28;20043;-70
2021/07/06 13:56:00;;;;;;;9.18;0.47;;;;;;;;;;4890696;28;20814;-67
2021/07/06 13:58:26;;;;;;;2.63;0.40;;;;;;;;;;4888778;28;20041;-64
2021/07/06 14:00:55;;;;;;;4.60;1.10;;;;;;;;;;4892841;28;20038;-64
2021/07/06 14:03:23;;;;;;;3.42;0.60;;;;;;;;;;4891488;28;20032;-62
2021/07/06 14:05:54;;;;;;;4.30;0.50;;;;;;;;;;4891940;28;20067;-64
2021/07/06 14:08:22;;;;;;;11.68;0.60;;;;;;;;;;4891037;28;20032;-65
2021/07/06 14:10:51;;;;;;;3.28;0.98;;;;;;;;;;4891730;28;20400;-65
2021/07/06 14:13:17;;;;;;;6.53;1.10;;;;;;;;;;4890299;28;20158;-64
2021/07/06 14:15:43;;;;;;;7.63;0.88;;;;;;;;;;4906087;28;20484;-63
2021/07/06 14:18:09;;;;;;;4.43;0.45;;;;;;;;;;4888999;28;20043;-65
2021/07/06 14:20:35;;;;;;;5.55;0.65;;;;;;;;;;4890362;28;20027;-65
2021/07/06 14:23:06;;;;;;;1.45;0.50;;;;;;;;;;4891571;28;20036;-63
2021/07/06 14:25:31;;;;;;;2.33;0.80;;;;;;;;;;4903512;28;20679;-64
2021/07/06 14:27:59;;;;;;;9.23;0.50;;;;;;;;;;4887199;28;20035;-61
2021/07/06 14:30:25;;;;;;;3.83;0.60;;;;;;;;;;4893289;28;20505;-63
2021/07/06 14:32:52;;;;;;;5.05;0.50;;;;;;;;;;4890951;28;20033;-65
2021/07/06 14:35:21;;;;;;;10.55;0.85;;;;;;;;;;4890046;28;20143;-65
2021/07/06 14:37:47;;;;;;;5.82;0.90;;;;;;;;;;4881889;28;21016;-64
2021/07/06 14:40:20;;;;;;;3.83;0.63;;;;;;;;;;4854182;28;20044;-64
2021/07/06 14:42:48;;;;;;;5.65;0.82;;;;;;;;;;4904780;28;20036;-64
2021/07/06 14:45:16;;;;;;;9.40;0.90;;;;;;;;;;4890029;28;20059;-64